Time;durP1;ratioP1;P1;durP2;ratioP2;P2;SDS_P1;SDS_P2;PMS_P1;PMS_P2;Temp;Humidity;BMP_temperature;BMP_pressure;BME280_temperature;BME280_humidity;BME280_pressure;Samples;Min_cycle;Max_cycle;Signal;HPM_P1;HPM_P2
2021/12/28 04:34:30;;;;;;;27.73;12.90;;;;;;;1.44;75.64;98902.97;5664037;23;20138;-90
2021/12/28 04:37:01;;;;;;;26.63;11.98;;;;;;;1.21;75.60;98858.06;4957585;29;20043;-92
2021/12/28 04:39:35;;;;;;;26.85;12.30;;;;;;;1.23;74.98;98860.59;4924048;29;20437;-91
2021/12/28 04:42:09;;;;;;;28.13;13.65;;;;;;;1.53;74.99;98906.53;4956378;29;20452;-93
2021/12/28 04:44:45;;;;;;;27.98;13.13;;;;;;;1.51;75.22;98902.28;4939653;29;20051;-93
2021/12/28 04:47:19;;;;;;;27.02;12.52;;;;;;;1.57;75.30;98915.00;4955988;28;20102;-92
2021/12/28 04:49:55;;;;;;;26.27;13.05;;;;;;;1.37;74.65;98886.06;4956143;28;20047;-93
2021/12/28 04:52:34;;;;;;;27.25;12.35;;;;;;;1.37;74.90;98873.50;4939465;29;20043;-93
2021/12/28 04:55:11;;;;;;;27.42;12.75;;;;;;;1.51;74.67;98890.59;4939124;29;20051;-93
2021/12/28 04:57:47;;;;;;;26.98;12.73;;;;;;;1.59;74.75;98915.88;4939473;29;20405;-92
2021/12/28 05:00:23;;;;;;;22.83;12.02;;;;;;;1.47;74.05;98891.31;4923371;29;20055;-93
2021/12/28 05:02:57;;;;;;;26.80;12.82;;;;;;;1.54;73.54;98912.41;4923567;29;20049;-95
2021/12/28 05:05:35;;;;;;;21.80;11.57;;;;;;;1.62;74.09;98920.97;4940442;29;20059;-94
2021/12/28 05:08:08;;;;;;;28.50;13.48;;;;;;;1.59;74.13;98925.91;4939056;29;20086;-93
2021/12/28 05:10:38;;;;;;;23.95;12.30;;;;;;;1.62;73.70;98926.00;4955825;28;20189;-90
2021/12/28 05:13:11;;;;;;;26.15;11.57;;;;;;;1.40;74.01;98896.16;4923560;29;20370;-93
2021/12/28 05:51:46;;;;;;;27.10;12.10;;;;;;;0.40;76.42;98856.06;5232303;23;20073;-89
2021/12/28 05:54:20;;;;;;;28.17;12.30;;;;;;;0.97;76.24;98937.88;4965128;29;20047;-90
2021/12/28 05:56:52;;;;;;;26.23;10.98;;;;;;;0.21;76.48;98798.69;4966398;28;20043;-89
2021/12/28 05:59:26;;;;;;;22.15;12.35;;;;;;;0.63;76.81;98860.00;4950019;29;20050;-90
2021/12/28 06:01:57;;;;;;;24.20;10.20;;;;;;;1.21;76.46;98951.03;4952567;29;20055;-89
2021/12/28 06:07:38;;;;;;;25.48;11.25;;;;;;;1.25;76.69;98962.00;4994565;23;20047;-88
2021/12/28 06:12:59;;;;;;;22.15;11.15;;;;;;;0.93;76.84;98926.06;4951365;29;20146;-89
2021/12/28 06:15:30;;;;;;;26.48;11.90;;;;;;;1.30;76.93;98980.53;4946229;29;20043;-87
2021/12/28 06:21:42;;;;;;;21.08;9.65;;;;;;;0.93;77.02;98933.59;5142172;23;19929;-90
2021/12/28 06:24:14;;;;;;;23.65;10.73;;;;;;;0.16;77.25;98807.75;4950481;29;20051;-90
2021/12/28 06:26:44;;;;;;;25.35;12.15;;;;;;;0.86;77.04;98916.66;4932283;29;20039;-89
2021/12/28 06:29:18;;;;;;;24.00;12.68;;;;;;;1.02;77.39;98936.31;4931164;29;20051;-92
2021/12/28 06:31:48;;;;;;;25.27;11.65;;;;;;;0.73;77.43;98876.13;4959845;29;20044;-90
2021/12/28 06:34:25;;;;;;;23.00;12.18;;;;;;;1.07;77.28;98944.81;4959144;28;20576;-91
2021/12/28 06:36:55;;;;;;;21.75;10.23;;;;;;;1.34;77.44;98984.84;4941575;29;20058;-90
2021/12/28 06:39:29;;;;;;;;;;;;;;;1.38;77.91;98980.75;4925760;29;20051;-92
2021/12/28 06:42:03;;;;;;;20.27;9.40;;;;;;;1.34;77.78;98970.59;4958237;29;19926;-91
2021/12/28 06:44:35;;;;;;;23.17;10.63;;;;;;;1.46;78.54;98984.28;4941148;29;20047;-91
2021/12/28 06:47:13;;;;;;;19.67;10.48;;;;;;;0.75;77.88;98865.31;4941845;29;20051;-93
2021/12/28 06:49:44;;;;;;;25.63;12.52;;;;;;;1.11;78.01;98929.00;4959204;28;20130;-91
2021/12/28 06:52:18;;;;;;;23.20;11.35;;;;;;;1.43;78.00;98985.06;4958300;28;20047;-90
2021/12/28 06:54:53;;;;;;;25.42;12.27;;;;;;;1.49;78.43;98991.91;4941174;29;20047;-91
2021/12/28 06:57:25;;;;;;;24.55;11.73;;;;;;;1.53;78.33;98992.03;4909346;29;20051;-92
2021/12/28 07:00:05;;;;;;;31.20;13.38;;;;;;;1.54;78.11;99002.91;4963778;23;20081;-92
2021/12/28 07:02:34;;;;;;;23.45;11.95;;;;;;;1.45;77.98;98980.06;4925631;29;20102;-94
2021/12/28 07:05:10;;;;;;;24.50;11.25;;;;;;;1.57;77.75;98997.97;4925258;29;20455;-93
2021/12/28 07:07:43;;;;;;;22.80;11.30;;;;;;;1.55;76.92;98984.50;4940639;29;20051;-93
2021/12/28 07:10:20;;;;;;;21.45;11.07;;;;;;;1.22;76.92;98922.56;4940746;29;20397;-93
2021/12/28 07:12:51;;;;;;;26.27;11.73;;;;;;;1.64;76.82;98989.75;4957837;28;20043;-93
2021/12/28 07:15:24;;;;;;;26.95;12.13;;;;;;;1.71;76.75;98996.59;4940675;29;20047;-93
2021/12/28 07:17:57;;;;;;;26.52;12.07;;;;;;;1.67;76.34;98984.78;4957611;28;20409;-93
2021/12/28 07:20:28;;;;;;;25.00;12.35;;;;;;;1.61;76.24;98979.63;4957684;28;20094;-93
2021/12/28 07:23:03;;;;;;;24.48;12.40;;;;;;;1.61;76.50;98967.88;4957668;29;20043;-93
2021/12/28 07:25:38;;;;;;;21.35;10.10;;;;;;;1.74;76.01;99001.72;4957440;28;20417;-92
2021/12/28 07:28:11;;;;;;;27.38;11.52;;;;;;;1.62;75.61;98969.59;4940576;29;20054;-94
2021/12/28 07:30:52;;;;;;;19.13;10.43;;;;;;;1.47;75.16;98945.75;4940940;29;20059;-92
2021/12/28 07:33:26;;;;;;;19.20;9.60;;;;;;;1.80;75.62;98999.34;4940518;29;20057;-93
2021/12/28 07:39:29;;;;;;;14.55;7.30;;;;;;;1.37;75.11;98918.75;4958028;29;20051;-92
2021/12/28 07:45:14;;;;;;;12.73;6.25;;;;;;;1.92;74.30;99002.16;4933571;29;20102;-93
2021/12/28 07:48:23;;;;;;;10.40;5.65;;;;;;;0.82;73.59;98816.94;4940575;29;20070;-94
2021/12/28 07:51:01;;;;;;;9.57;5.28;;;;;;;1.14;73.49;98866.28;4956185;29;20051;-95
2021/12/28 07:53:35;;;;;;;10.48;4.22;;;;;;;2.08;73.65;99014.25;4957203;28;20051;-94
2021/12/28 07:56:11;;;;;;;9.43;5.20;;;;;;;1.33;73.41;98870.91;4956813;29;20135;-93
2021/12/28 07:58:55;;;;;;;9.88;5.18;;;;;;;2.23;73.71;99016.25;4926165;29;20047;-92
2021/12/28 08:01:36;;;;;;;8.63;3.95;;;;;;;1.96;73.67;98963.66;4924232;23;20048;-93
2021/12/28 08:04:15;;;;;;;9.13;4.60;;;;;;;1.33;72.91;98853.31;4917965;29;20048;-93
2021/12/28 08:06:47;;;;;;;7.57;3.90;;;;;;;1.94;73.47;98935.09;4917704;29;20054;-93
2021/12/28 08:09:27;;;;;;;10.35;4.22;;;;;;;1.63;72.95;98878.25;4919123;29;20056;-93
2021/12/28 08:12:00;;;;;;;9.55;4.60;;;;;;;1.77;72.99;98911.25;4911875;29;20126;-90
2021/12/28 08:14:47;;;;;;;;;;;;;;;;;;;;;
2021/12/28 08:17:39;;;;;;;8.73;4.43;;;;;;;1.92;73.68;98936.75;4918327;29;20051;-96
2021/12/28 08:20:12;;;;;;;7.05;3.60;;;;;;;2.30;73.14;98987.88;4920346;29;20056;-95
2021/12/28 08:22:43;;;;;;;10.32;4.68;;;;;;;1.57;73.03;98858.03;4901608;29;20152;-95
2021/12/28 08:25:19;;;;;;;9.43;4.45;;;;;;;2.37;72.65;98983.00;4918450;29;20048;-93
2021/12/28 08:27:54;;;;;;;8.63;4.38;;;;;;;1.99;72.49;98928.50;4917571;29;20410;-94
2021/12/28 08:30:56;;;;;;;8.30;4.72;;;;;;;1.50;72.33;98831.06;4918295;29;20084;-96
2021/12/28 08:33:28;;;;;;;9.23;3.95;;;;;;;2.40;72.57;98977.16;4918211;29;20052;-95
2021/12/28 08:35:58;;;;;;;11.25;4.20;;;;;;;1.51;72.62;98832.75;4921357;29;20090;-96
2021/12/28 08:38:45;;;;;;;10.30;4.95;;;;;;;1.82;72.38;98887.06;4923296;29;20048;-96
2021/12/28 08:41:26;;;;;;;10.60;4.65;;;;;;;1.43;72.24;98828.38;4885757;29;20044;-94
2021/12/28 08:43:59;;;;;;;9.75;4.97;;;;;;;1.87;72.61;98883.78;4917384;29;20048;-93
2021/12/28 08:46:37;;;;;;;10.73;4.63;;;;;;;2.51;72.34;98996.69;4917878;29;20099;-94
2021/12/28 08:49:08;;;;;;;8.93;4.57;;;;;;;2.00;72.05;98885.75;4917416;29;20476;-95
2021/12/28 08:51:39;;;;;;;10.63;5.20;;;;;;;1.84;72.09;98870.31;4915095;29;20048;-93
2021/12/28 08:54:09;;;;;;;10.82;4.97;;;;;;;1.98;72.78;98877.34;4921191;29;20059;-93
2021/12/28 08:56:39;;;;;;;12.85;5.88;;;;;;;2.29;72.14;98928.25;4898610;29;20052;-92
2021/12/28 08:59:10;;;;;;;9.30;5.38;;;;;;;2.70;72.48;98977.75;4933556;23;20150;-93
2021/12/28 09:01:42;;;;;;;10.35;5.18;;;;;;;2.64;72.79;98982.66;4975646;28;20094;-94
2021/12/28 09:04:12;;;;;;;11.80;5.70;;;;;;;2.33;72.72;98913.25;4958351;28;20074;-95
2021/12/28 09:06:42;;;;;;;10.35;4.68;;;;;;;2.31;72.70;98912.38;4926906;28;20061;-95
2021/12/28 09:09:12;;;;;;;10.50;5.78;;;;;;;2.41;72.89;98924.31;4975370;28;20069;-94
2021/12/28 09:11:45;;;;;;;10.98;5.85;;;;;;;2.68;72.60;98970.19;4958325;28;20050;-95
2021/12/28 09:14:16;;;;;;;11.77;6.45;;;;;;;2.15;72.71;98884.34;4974961;28;20500;-94
2021/12/28 09:16:48;;;;;;;11.55;6.18;;;;;;;2.00;73.19;98870.66;4968420;28;20074;-93
2021/12/28 09:19:23;;;;;;;14.38;5.80;;;;;;;2.39;73.19;98936.03;4939038;29;20047;-93
2021/12/28 09:21:53;;;;;;;12.95;6.35;;;;;;;2.34;73.27;98917.47;4939131;29;20131;-94
2021/12/28 09:24:23;;;;;;;11.85;6.38;;;;;;;2.61;72.79;98970.88;4955693;28;20047;-95
2021/12/28 09:27:11;;;;;;;11.60;6.07;;;;;;;2.63;73.56;98961.69;4955812;28;20051;-94
2021/12/28 09:29:47;;;;;;;12.98;6.45;;;;;;;2.31;73.71;98917.41;4931764;28;20047;-95
2021/12/28 09:32:23;;;;;;;11.80;5.97;;;;;;;2.44;73.83;98924.38;4938807;29;20051;-95
2021/12/28 09:34:56;;;;;;;12.88;6.55;;;;;;;2.16;73.87;98873.47;4958974;28;20074;-93
2021/12/28 09:37:26;;;;;;;11.05;6.50;;;;;;;2.69;73.49;98971.00;4942571;29;20051;-94
2021/12/28 09:39:59;;;;;;;14.52;6.43;;;;;;;2.35;73.92;98915.81;4946406;28;20105;-94
2021/12/28 09:42:45;;;;;;;12.40;6.28;;;;;;;2.17;73.88;98893.63;4975762;28;20039;-96
2021/12/28 09:45:18;;;;;;;14.40;5.72;;;;;;;2.55;74.18;98965.72;4968041;28;20131;-92
2021/12/28 09:47:51;;;;;;;13.38;6.10;;;;;;;1.90;74.21;98852.81;4957755;28;20070;-93
2021/12/28 09:50:50;;;;;;;15.38;7.35;;;;;;;2.48;74.70;98960.53;4979585;23;20060;-95
2021/12/28 09:53:25;;;;;;;12.45;7.03;;;;;;;2.16;74.25;98906.19;4963814;28;20047;-94
2021/12/28 09:55:56;;;;;;;17.90;10.38;;;;;;;2.33;74.67;98933.38;4974786;28;20047;-90
2021/12/28 09:58:27;;;;;;;26.30;13.75;;;;;;;2.31;74.68;98919.06;4949718;28;20043;-90
2021/12/28 10:01:06;;;;;;;32.63;16.13;;;;;;;2.20;74.36;98918.00;4955339;29;20051;-95
2021/12/28 10:03:39;;;;;;;24.83;12.90;;;;;;;1.78;74.67;98887.78;4926705;29;20055;-94
2021/12/28 10:06:19;;;;;;;27.50;13.88;;;;;;;1.54;74.66;98836.97;4942872;29;20051;-94
2021/12/28 10:09:05;;;;;;;20.48;10.60;;;;;;;2.34;75.00;98956.88;4958928;29;20051;-94
2021/12/28 10:11:48;;;;;;;19.05;10.13;;;;;;;2.34;74.73;98952.72;4953457;28;20496;-95
2021/12/28 10:14:21;;;;;;;23.02;11.32;;;;;;;1.73;75.47;98864.19;4954770;28;20121;-96
2021/12/28 10:16:56;;;;;;;19.75;11.27;;;;;;;2.31;75.10;98952.63;4945268;29;20062;-95
2021/12/28 10:19:35;;;;;;;24.25;13.82;;;;;;;1.70;75.17;98847.41;4926689;29;20051;-94
2021/12/28 10:22:35;;;;;;;28.73;13.57;;;;;;;1.89;75.59;98876.28;4946476;29;20078;-94
2021/12/28 10:25:12;;;;;;;23.85;11.65;;;;;;;2.03;75.30;98900.06;4941577;29;20516;-93
2021/12/28 10:27:45;;;;;;;21.63;10.00;;;;;;;2.37;75.93;98962.84;4925978;29;20075;-95
2021/12/28 10:30:22;;;;;;;39.65;17.30;;;;;;;2.03;75.68;98895.03;4941732;29;20142;-94
2021/12/28 10:32:55;;;;;;;21.73;10.30;;;;;;;1.51;75.37;98796.72;4959068;29;20054;-94
2021/12/28 10:35:30;;;;;;;60.53;23.40;;;;;;;1.99;75.84;98858.06;4925833;29;20055;-94
2021/12/28 10:38:02;;;;;;;91.65;38.75;;;;;;;2.49;75.67;98960.56;4925627;29;20059;-94
2021/12/28 10:40:35;;;;;;;38.03;16.30;;;;;;;1.74;75.63;98805.56;4942123;29;20057;-94
2021/12/28 10:43:09;;;;;;;25.77;12.07;;;;;;;2.49;75.65;98925.31;4958623;29;20508;-95
2021/12/28 10:45:42;;;;;;;16.88;8.48;;;;;;;2.32;75.78;98880.50;4941051;29;20065;-95
2021/12/28 10:48:15;;;;;;;19.50;9.38;;;;;;;2.43;75.40;98917.63;4926305;29;20145;-94
2021/12/28 10:50:50;;;;;;;22.50;10.80;;;;;;;2.26;75.07;98886.25;4925701;29;20386;-94
2021/12/28 10:53:33;;;;;;;11.38;5.93;;;;;;;1.90;75.58;98817.59;4958017;28;20047;-95
2021/12/28 10:56:17;;;;;;;14.60;6.97;;;;;;;2.24;75.38;98875.31;4941095;29;20055;-94
2021/12/28 10:58:49;;;;;;;10.82;5.25;;;;;;;1.78;75.02;98792.22;4958190;29;20051;-94
2021/12/28 11:01:21;;;;;;;9.65;5.15;;;;;;;2.53;75.55;98917.00;4964636;28;20047;-94
2021/12/28 11:03:55;;;;;;;9.88;5.15;;;;;;;2.61;75.79;98907.06;4926073;29;20047;-94
2021/12/28 11:06:45;;;;;;;10.60;5.22;;;;;;;2.36;74.83;98852.03;4941047;29;20051;-94
2021/12/28 11:09:24;;;;;;;9.20;4.72;;;;;;;2.11;75.42;98802.94;4941035;29;20047;-93
2021/12/28 11:12:00;;;;;;;11.05;5.25;;;;;;;2.75;75.74;98899.75;4940864;29;20075;-94
2021/12/28 11:14:36;;;;;;;12.25;5.50;;;;;;;2.61;75.13;98871.81;4941480;29;20070;-94
2021/12/28 11:21:38;;;;;;;11.43;5.97;;;;;;;1.79;75.32;98748.66;4988569;23;20432;-88
2021/12/28 11:24:34;;;;;;;16.52;6.45;;;;;;;2.25;75.06;98800.66;4938025;29;20059;-93
2021/12/28 11:27:07;;;;;;;13.35;5.75;;;;;;;2.36;75.08;98820.16;4936637;29;20055;-94
2021/12/28 11:29:59;;;;;;;13.23;6.22;;;;;;;1.99;75.83;98762.47;4864767;29;20064;-94
2021/12/28 11:32:38;;;;;;;10.15;5.43;;;;;;;2.58;75.90;98867.56;4864977;29;20075;-92
2021/12/28 11:38:22;;;;;;;14.13;7.13;;;;;;;1.69;76.39;98734.22;5385644;23;20079;-93
2021/12/28 11:40:57;;;;;;;10.98;5.72;;;;;;;2.48;76.27;98855.63;4940761;29;20050;-92
2021/12/28 11:43:27;;;;;;;11.30;6.30;;;;;;;2.17;76.08;98808.06;4940366;29;20047;-92
2021/12/28 11:46:06;;;;;;;11.52;6.00;;;;;;;2.43;76.31;98832.03;4940526;29;20071;-92
2021/12/28 11:48:38;;;;;;;9.95;5.55;;;;;;;2.30;76.23;98789.00;4940793;29;20474;-93
2021/12/28 11:51:14;;;;;;;10.68;6.32;;;;;;;2.60;76.62;98840.72;4965159;23;20058;-93
2021/12/28 11:54:14;;;;;;;12.25;5.75;;;;;;;2.58;76.80;98846.56;4941330;29;20047;-92
2021/12/28 11:56:49;;;;;;;10.75;5.28;;;;;;;2.56;76.09;98849.06;4939600;29;20074;-96
2021/12/28 11:59:23;;;;;;;12.48;5.85;;;;;;;2.55;76.08;98842.31;4959586;28;20116;-92
2021/12/28 12:02:01;;;;;;;14.80;6.57;;;;;;;2.24;76.61;98796.44;4957116;29;20134;-94
2021/12/28 12:04:58;;;;;;;14.65;6.72;;;;;;;2.21;76.39;98789.69;4958734;29;20044;-94
2021/12/28 12:07:33;;;;;;;12.02;5.65;;;;;;;1.85;76.04;98723.59;4918303;29;20070;-94
2021/12/28 12:10:30;;;;;;;12.43;6.10;;;;;;;1.90;76.54;98724.53;4921216;29;20506;-94
2021/12/28 12:13:24;;;;;;;12.13;5.38;;;;;;;2.21;76.56;98773.75;4956468;29;20043;-93
2021/12/28 12:15:58;;;;;;;11.52;5.75;;;;;;;1.84;76.86;98706.84;4956567;28;20047;-93
2021/12/28 12:21:41;;;;;;;11.73;5.70;;;;;;;2.18;76.59;98779.59;5704585;23;20055;-91
2021/12/28 12:27:50;;;;;;;9.88;5.00;;;;;;;1.72;76.50;98691.53;5358460;23;20059;-90
2021/12/28 12:30:43;;;;;;;9.65;5.47;;;;;;;2.41;76.89;98806.00;4939508;29;20055;-93
2021/12/28 12:33:17;;;;;;;10.63;4.78;;;;;;;1.97;76.68;98732.22;4949349;28;20047;-93
2021/12/28 12:35:55;;;;;;;11.27;5.13;;;;;;;2.28;77.23;98796.50;4936529;29;20485;-94
2021/12/28 12:38:38;;;;;;;13.32;5.60;;;;;;;2.25;77.24;98799.00;4906052;29;20444;-92
2021/12/28 12:41:12;;;;;;;11.00;6.00;;;;;;;2.26;77.03;98773.00;4942984;29;20101;-92
2021/12/28 12:44:01;;;;;;;10.57;6.15;;;;;;;1.95;77.38;98722.94;4929111;29;20074;-93
2021/12/28 12:46:37;;;;;;;13.05;5.75;;;;;;;2.13;77.48;98756.00;4924746;29;20489;-95
2021/12/28 12:49:32;;;;;;;13.30;4.85;;;;;;;1.81;77.41;98716.84;4929241;29;20040;-92
2021/12/28 12:52:19;;;;;;;11.57;4.78;;;;;;;1.67;77.46;98680.53;4945362;29;20143;-91
2021/12/28 12:54:54;;;;;;;11.35;5.05;;;;;;;2.13;77.67;98761.03;4956250;28;20130;-94
2021/12/28 12:57:29;;;;;;;10.52;5.07;;;;;;;1.54;77.25;98661.00;4955958;28;20129;-91
2021/12/28 13:00:10;;;;;;;10.77;5.93;;;;;;;1.49;77.62;98662.63;4956256;28;20051;-93
2021/12/28 13:02:44;;;;;;;11.85;5.88;;;;;;;2.18;77.78;98774.53;4922979;29;20471;-93
2021/12/28 13:05:21;;;;;;;13.13;6.30;;;;;;;2.38;77.95;98810.09;4936993;29;20059;-93
2021/12/28 13:07:55;;;;;;;12.05;5.25;;;;;;;2.35;78.51;98813.41;4930477;29;20039;-93
2021/12/28 13:10:29;;;;;;;10.10;4.80;;;;;;;2.43;78.00;98811.88;4882594;29;20051;-93
2021/12/28 13:13:06;;;;;;;11.00;5.50;;;;;;;2.27;77.77;98799.88;4893152;29;20051;-93
2021/12/28 13:15:36;;;;;;;11.55;5.65;;;;;;;1.92;77.79;98769.03;4920063;29;20506;-92
2021/12/28 13:21:34;;;;;;;10.60;6.35;;;;;;;2.11;78.04;98800.44;5435708;23;20040;-91
2021/12/28 13:24:07;;;;;;;11.50;5.80;;;;;;;1.35;78.27;98685.81;4956322;28;20054;-94
2021/12/28 13:26:43;;;;;;;11.02;5.47;;;;;;;2.16;79.10;98806.34;4955107;28;20527;-90
2021/12/28 13:29:23;;;;;;;11.95;5.78;;;;;;;2.22;79.15;98798.94;4950491;29;20032;-91
2021/12/28 13:31:56;;;;;;;11.65;5.75;;;;;;;2.01;79.34;98765.84;4951969;29;20047;-92
2021/12/28 13:34:27;;;;;;;11.18;5.80;;;;;;;2.25;78.91;98801.50;4898439;29;20119;-90
2021/12/28 13:37:01;;;;;;;13.55;6.43;;;;;;;2.21;79.23;98794.72;4945014;29;20048;-93
2021/12/28 14:06:56;;;;;;;11.68;4.95;;;;;;;1.82;80.14;98758.78;5272586;23;20055;-94
2021/12/28 14:09:28;;;;;;;10.68;4.50;;;;;;;2.12;80.29;98784.50;4947059;29;20506;-93
2021/12/28 14:12:00;;;;;;;10.15;5.45;;;;;;;2.06;79.99;98784.38;4952872;28;20039;-90
2021/12/28 14:14:33;;;;;;;11.40;5.63;;;;;;;1.85;80.37;98758.81;5130943;23;20106;-91
2021/12/28 14:17:14;;;;;;;13.50;6.57;;;;;;;1.93;80.01;98768.22;4932268;29;20120;-91
2021/12/28 14:19:56;;;;;;;11.85;5.32;;;;;;;1.37;80.48;98673.25;4900347;29;20148;-93
2021/12/28 14:26:13;;;;;;;9.35;4.75;;;;;;;1.13;80.12;98638.47;5066119;23;20059;-91
2021/12/28 14:29:10;;;;;;;12.27;5.35;;;;;;;1.20;79.90;98645.28;4942020;29;20039;-93
2021/12/28 14:37:48;;;;;;;11.48;5.63;;;;;;;1.87;80.61;98757.19;5228995;23;20043;-92
2021/12/28 14:40:25;;;;;;;12.07;6.35;;;;;;;1.93;80.02;98767.38;4941757;29;20051;-93
2021/12/28 14:43:08;;;;;;;11.73;5.78;;;;;;;1.79;80.42;98758.72;4941761;29;20057;-93
2021/12/28 14:45:42;;;;;;;11.27;6.30;;;;;;;1.63;80.49;98716.50;4958526;28;20051;-93
2021/12/28 14:52:20;;;;;;;12.48;6.50;;;;;;;1.96;80.40;98767.44;5154881;23;20074;-89
2021/12/28 14:55:01;;;;;;;12.32;6.38;;;;;;;1.98;80.62;98758.22;4922143;29;20052;-91
2021/12/28 14:57:39;;;;;;;13.73;6.32;;;;;;;1.14;80.01;98635.16;4930234;29;20083;-91
2021/12/28 15:00:20;;;;;;;12.50;5.95;;;;;;;1.68;80.21;98730.03;4907533;29;20067;-91
2021/12/28 15:02:56;;;;;;;13.25;6.57;;;;;;;1.37;80.30;98667.41;4924411;29;20130;-90
2021/12/28 15:05:33;;;;;;;13.60;7.60;;;;;;;1.09;80.64;98646.78;4940670;29;20055;-93
2021/12/28 15:08:09;;;;;;;17.27;7.18;;;;;;;1.25;80.56;98658.78;4906551;29;20054;-92
2021/12/28 15:10:50;;;;;;;11.60;5.88;;;;;;;1.15;80.29;98621.75;4941360;29;20055;-90
2021/12/28 15:13:22;;;;;;;12.55;6.75;;;;;;;1.88;80.16;98753.84;4921993;29;20143;-92
2021/12/28 15:15:59;;;;;;;11.00;5.53;;;;;;;1.52;80.29;98682.75;4938542;29;20107;-92
2021/12/28 15:18:33;;;;;;;11.68;5.53;;;;;;;2.09;80.64;98784.41;4921895;29;20437;-92
2021/12/28 15:21:09;;;;;;;10.68;5.43;;;;;;;1.40;80.08;98674.97;4923036;29;20050;-90
2021/12/28 15:23:38;;;;;;;11.65;6.05;;;;;;;1.65;80.72;98712.34;4937382;29;20044;-92
2021/12/28 15:26:09;;;;;;;10.02;5.00;;;;;;;1.64;80.47;98711.50;4938706;29;20069;-91
2021/12/28 15:28:44;;;;;;;12.13;5.90;;;;;;;1.47;80.28;98674.28;4938370;29;20479;-91
2021/12/28 15:31:24;;;;;;;11.75;5.43;;;;;;;1.59;80.51;98695.47;4922170;29;20100;-92
2021/12/28 15:33:55;;;;;;;13.15;5.40;;;;;;;0.76;80.91;98569.91;4925253;29;20055;-91
2021/12/28 15:36:36;;;;;;;12.60;6.05;;;;;;;1.89;80.81;98771.50;4923757;29;20094;-91
2021/12/28 15:39:10;;;;;;;11.88;5.55;;;;;;;1.39;80.23;98685.88;4916346;29;20130;-91
2021/12/28 15:41:50;;;;;;;12.10;4.97;;;;;;;1.79;80.91;98762.09;4952538;28;20138;-89
2021/12/28 15:44:24;;;;;;;7.55;4.15;;;;;;;1.72;80.95;98742.66;4877718;29;20104;-93
2021/12/28 15:49:46;;;;;;;10.73;4.93;;;;;;;1.19;81.00;98618.50;4938839;29;20582;-92
2021/12/28 15:52:19;;;;;;;10.30;4.88;;;;;;;2.00;80.97;98754.06;4903319;29;20052;-94
2021/12/28 15:54:50;;;;;;;9.93;5.00;;;;;;;1.75;80.52;98694.09;4917978;29;20063;-96
2021/12/28 15:57:23;;;;;;;17.67;7.90;;;;;;;1.50;80.30;98645.03;4918516;29;20139;-93
2021/12/28 15:59:56;;;;;;;13.88;6.93;;;;;;;1.21;80.16;98606.81;4917867;29;20143;-91
2021/12/28 16:02:31;;;;;;;11.57;5.80;;;;;;;1.94;80.11;98718.75;4917552;29;20044;-93
2021/12/28 16:05:05;;;;;;;11.48;6.13;;;;;;;2.14;80.38;98742.56;4918123;29;20048;-93
2021/12/28 16:07:39;;;;;;;12.40;6.78;;;;;;;1.32;80.21;98610.34;4917986;29;20048;-93
2021/12/28 16:10:12;;;;;;;10.05;5.05;;;;;;;2.03;80.32;98754.13;4918926;29;20142;-93
2021/12/28 16:12:43;;;;;;;13.45;5.70;;;;;;;1.42;80.25;98655.78;4935211;29;20048;-93
2021/12/28 16:15:17;;;;;;;10.82;4.75;;;;;;;1.27;80.68;98596.84;4919620;29;20135;-92
2021/12/28 16:17:52;;;;;;;11.13;5.13;;;;;;;2.08;80.26;98737.47;4918350;29;20059;-92
2021/12/28 16:20:26;;;;;;;12.20;7.15;;;;;;;1.49;79.93;98652.56;4918892;29;20048;-92
2021/12/28 16:23:14;;;;;;;11.95;6.03;;;;;;;1.95;80.36;98706.19;4917596;29;20135;-92
2021/12/28 16:26:22;;;;;;;12.55;5.30;;;;;;;1.88;79.89;98683.41;4918469;29;20044;-94
2021/12/28 16:28:55;;;;;;;10.00;4.95;;;;;;;2.18;80.04;98734.28;4901994;29;20048;-92
2021/12/28 16:31:54;;;;;;;10.40;4.40;;;;;;;2.00;80.35;98679.44;4905544;29;20048;-92
2021/12/28 16:34:35;;;;;;;8.27;4.53;;;;;;;1.30;79.67;98596.06;4918255;29;20083;-92
2021/12/28 16:37:08;;;;;;;7.93;4.30;;;;;;;2.18;79.80;98744.34;4917986;29;20060;-92
2021/12/28 16:39:45;;;;;;;9.90;4.38;;;;;;;1.30;79.76;98576.81;4932885;29;20071;-92
2021/12/28 16:42:23;;;;;;;9.18;4.78;;;;;;;1.55;79.51;98623.34;4917201;29;20056;-94
2021/12/28 16:44:58;;;;;;;;;;;;;;;2.16;80.46;98725.81;4932867;29;20052;-92
2021/12/28 16:47:27;;;;;;;9.20;4.25;;;;;;;1.50;80.09;98619.03;4916949;29;19923;-94
2021/12/28 16:50:05;;;;;;;7.82;3.97;;;;;;;1.79;80.16;98669.03;4901604;29;20052;-92
2021/12/28 16:52:37;;;;;;;11.75;4.75;;;;;;;2.00;79.89;98701.25;4917169;29;20047;-92
2021/12/28 16:55:11;;;;;;;9.75;5.22;;;;;;;1.48;80.11;98630.75;4917119;29;20103;-93
2021/12/28 16:57:42;;;;;;;10.30;5.03;;;;;;;1.67;80.56;98635.28;4933202;29;20048;-94
2021/12/28 17:00:26;;;;;;;10.05;4.40;;;;;;;1.86;79.82;98659.91;4916960;29;20052;-93
2021/12/28 17:02:59;;;;;;;10.93;4.90;;;;;;;1.54;79.95;98609.06;4917909;29;20055;-92
2021/12/28 17:05:47;;;;;;;9.27;4.45;;;;;;;2.17;80.54;98721.66;4917241;29;20135;-93
2021/12/28 17:08:23;;;;;;;7.97;5.03;;;;;;;1.32;80.02;98577.69;4916906;29;20131;-93
2021/12/28 17:11:01;;;;;;;10.23;4.47;;;;;;;1.98;80.38;98701.22;4918506;29;20044;-92
2021/12/28 17:13:36;;;;;;;;;;;;;;;2.14;80.63;98716.56;4917026;29;20052;-93
2021/12/28 17:16:11;;;;;;;9.00;4.80;;;;;;;1.26;80.39;98576.75;4917901;29;19923;-91
2021/12/28 17:18:45;;;;;;;10.88;5.25;;;;;;;1.61;80.48;98647.75;4916912;29;20136;-94
2021/12/28 17:21:36;;;;;;;9.05;4.57;;;;;;;1.46;80.20;98622.34;4917375;29;20055;-93
2021/12/28 17:24:10;;;;;;;9.93;4.72;;;;;;;1.86;80.44;98675.84;4916435;29;20054;-93
2021/12/28 17:26:49;;;;;;;10.77;4.30;;;;;;;1.07;79.89;98557.13;4918025;29;20071;-92
2021/12/28 17:29:23;;;;;;;9.85;4.18;;;;;;;1.52;79.99;98622.44;4916721;29;20087;-92
2021/12/28 17:31:57;;;;;;;9.90;4.60;;;;;;;1.38;80.53;98574.44;4916915;29;20099;-93
2021/12/28 17:34:27;;;;;;;9.50;4.55;;;;;;;2.15;80.76;98709.06;4916543;29;20048;-92
2021/12/28 17:37:02;;;;;;;10.88;5.28;;;;;;;2.17;79.91;98716.63;4918136;29;20052;-93
2021/12/28 17:39:36;;;;;;;9.85;4.65;;;;;;;1.66;80.27;98641.09;4901032;29;20075;-93
2021/12/28 17:42:07;;;;;;;8.23;4.38;;;;;;;1.77;80.35;98669.81;4916699;29;20041;-93
2021/12/28 17:44:40;;;;;;;8.25;4.35;;;;;;;1.51;80.43;98630.81;4932324;29;20127;-93
2021/12/28 17:47:14;;;;;;;9.98;4.28;;;;;;;2.16;80.14;98740.94;4916813;29;20111;-92
2021/12/28 17:49:53;;;;;;;32.58;14.88;;;;;;;1.16;80.11;98575.72;4918078;29;20056;-92
2021/12/28 17:52:29;;;;;;;14.70;6.68;;;;;;;2.11;79.91;98737.50;4936917;29;20071;-94
2021/12/28 17:55:02;;;;;;;9.30;4.90;;;;;;;1.87;80.24;98696.84;4919617;29;20051;-94
2021/12/28 17:57:40;;;;;;;11.20;5.15;;;;;;;2.12;80.29;98716.53;4935819;23;20056;-95
2021/12/28 18:00:41;;;;;;;9.40;4.70;;;;;;;1.78;79.64;98661.44;4923234;29;20099;-94
2021/12/28 18:03:19;;;;;;;10.88;4.57;;;;;;;2.14;80.07;98717.41;4939833;29;20055;-95
2021/12/28 18:05:54;;;;;;;10.55;5.18;;;;;;;2.17;80.46;98707.41;4939055;29;20049;-95
2021/12/28 18:08:31;;;;;;;12.82;5.22;;;;;;;2.21;80.50;98719.22;4939330;29;20091;-94
2021/12/28 18:11:15;;;;;;;8.50;4.32;;;;;;;1.76;79.92;98622.84;4938919;29;20047;-94
2021/12/28 18:13:50;;;;;;;9.80;4.78;;;;;;;1.33;79.90;98559.28;4939793;29;20055;-95
2021/12/28 18:16:27;;;;;;;10.35;4.72;;;;;;;2.18;80.47;98709.13;4924084;29;20529;-94
2021/12/28 18:19:03;;;;;;;12.90;6.00;;;;;;;2.16;80.17;98690.59;4923163;29;20051;-93
2021/12/28 18:21:39;;;;;;;12.77;5.97;;;;;;;1.61;80.23;98595.78;4938982;29;20131;-93
2021/12/28 18:24:29;;;;;;;11.55;5.32;;;;;;;1.46;80.03;98577.09;4938914;29;20122;-93
2021/12/28 18:27:16;;;;;;;9.13;5.47;;;;;;;1.49;80.26;98597.25;4939916;29;20143;-94
2021/12/28 18:29:47;;;;;;;10.40;5.35;;;;;;;2.16;80.42;98698.16;4958157;23;20138;-94
2021/12/28 18:32:21;;;;;;;13.77;6.85;;;;;;;2.17;80.04;98692.31;4926392;29;20123;-95
2021/12/28 18:34:55;;;;;;;12.50;6.13;;;;;;;2.22;80.27;98660.50;4925983;29;20055;-95
2021/12/28 18:37:36;;;;;;;12.52;6.35;;;;;;;1.31;80.72;98518.22;4941929;29;20077;-94
2021/12/28 18:40:31;;;;;;;9.82;5.97;;;;;;;1.90;79.79;98616.38;4958582;29;20552;-95
2021/12/28 18:43:08;;;;;;;14.50;6.65;;;;;;;1.41;80.13;98533.44;4940669;29;20050;-95
2021/12/28 18:45:43;;;;;;;13.77;7.38;;;;;;;1.66;80.23;98551.44;4941189;29;20043;-94